sensor_id;sensor_type;location;lat;lon;timestamp;P1;durP1;ratioP1;P2;durP2;ratioP2
12707;SDS011;6418;50.824;4.718;2022-12-07T00:00:54;35.43;;;20.00;;
12707;SDS011;6418;50.824;4.718;2022-12-07T00:03:21;34.47;;;21.17;;
12707;SDS011;6418;50.824;4.718;2022-12-07T00:05:48;35.23;;;21.50;;
12707;SDS011;6418;50.824;4.718;2022-12-07T00:08:15;35.60;;;21.47;;
12707;SDS011;6418;50.824;4.718;2022-12-07T00:10:42;41.77;;;22.37;;
12707;SDS011;6418;50.824;4.718;2022-12-07T00:13:09;37.47;;;21.60;;
12707;SDS011;6418;50.824;4.718;2022-12-07T00:15:37;40.97;;;22.43;;
12707;SDS011;6418;50.824;4.718;2022-12-07T00:18:04;34.17;;;21.77;;
12707;SDS011;6418;50.824;4.718;2022-12-07T00:20:31;35.20;;;21.90;;
12707;SDS011;6418;50.824;4.718;2022-12-07T00:22:58;37.37;;;21.97;;
12707;SDS011;6418;50.824;4.718;2022-12-07T00:25:25;34.80;;;21.87;;
12707;SDS011;6418;50.824;4.718;2022-12-07T00:27:52;39.13;;;22.50;;
12707;SDS011;6418;50.824;4.718;2022-12-07T00:30:20;33.87;;;22.23;;
12707;SDS011;6418;50.824;4.718;2022-12-07T00:32:48;37.23;;;23.47;;
12707;SDS011;6418;50.824;4.718;2022-12-07T00:35:15;37.20;;;22.80;;
12707;SDS011;6418;50.824;4.718;2022-12-07T00:37:42;38.80;;;23.33;;
12707;SDS011;6418;50.824;4.718;2022-12-07T00:40:09;39.90;;;22.73;;
12707;SDS011;6418;50.824;4.718;2022-12-07T00:42:37;41.73;;;23.20;;
12707;SDS011;6418;50.824;4.718;2022-12-07T00:45:04;41.77;;;23.97;;
12707;SDS011;6418;50.824;4.718;2022-12-07T00:47:32;40.40;;;24.27;;
12707;SDS011;6418;50.824;4.718;2022-12-07T00:50:00;39.73;;;24.00;;
12707;SDS011;6418;50.824;4.718;2022-12-07T00:52:27;42.40;;;24.23;;
12707;SDS011;6418;50.824;4.718;2022-12-07T00:54:54;44.83;;;24.67;;
12707;SDS011;6418;50.824;4.718;2022-12-07T00:57:21;42.40;;;24.13;;
12707;SDS011;6418;50.824;4.718;2022-12-07T00:59:49;40.47;;;23.53;;
12707;SDS011;6418;50.824;4.718;2022-12-07T01:02:20;43.87;;;23.10;;
12707;SDS011;6418;50.824;4.718;2022-12-07T01:04:47;42.10;;;24.37;;
12707;SDS011;6418;50.824;4.718;2022-12-07T01:07:15;45.17;;;27.27;;
12707;SDS011;6418;50.824;4.718;2022-12-07T01:09:42;44.50;;;24.67;;
12707;SDS011;6418;50.824;4.718;2022-12-07T01:12:09;50.93;;;25.90;;
12707;SDS011;6418;50.824;4.718;2022-12-07T01:14:36;42.50;;;25.80;;
12707;SDS011;6418;50.824;4.718;2022-12-07T01:17:03;42.50;;;25.80;;
12707;SDS011;6418;50.824;4.718;2022-12-07T01:19:30;41.93;;;25.33;;
12707;SDS011;6418;50.824;4.718;2022-12-07T01:21:57;44.13;;;25.30;;
12707;SDS011;6418;50.824;4.718;2022-12-07T01:24:25;48.20;;;26.57;;
12707;SDS011;6418;50.824;4.718;2022-12-07T01:26:52;40.47;;;25.07;;
12707;SDS011;6418;50.824;4.718;2022-12-07T01:29:19;48.43;;;27.10;;
12707;SDS011;6418;50.824;4.718;2022-12-07T01:31:48;49.27;;;26.40;;
12707;SDS011;6418;50.824;4.718;2022-12-07T01:34:15;44.87;;;24.50;;
12707;SDS011;6418;50.824;4.718;2022-12-07T01:36:42;49.13;;;26.63;;
12707;SDS011;6418;50.824;4.718;2022-12-07T01:39:09;49.10;;;26.07;;
12707;SDS011;6418;50.824;4.718;2022-12-07T01:41:38;47.27;;;26.07;;
12707;SDS011;6418;50.824;4.718;2022-12-07T01:44:18;53.70;;;27.43;;
12707;SDS011;6418;50.824;4.718;2022-12-07T01:46:47;44.27;;;25.77;;
12707;SDS011;6418;50.824;4.718;2022-12-07T01:49:17;46.07;;;27.47;;
12707;SDS011;6418;50.824;4.718;2022-12-07T01:51:49;47.57;;;27.03;;
12707;SDS011;6418;50.824;4.718;2022-12-07T01:54:20;50.83;;;27.67;;
12707;SDS011;6418;50.824;4.718;2022-12-07T01:56:50;51.33;;;27.30;;
12707;SDS011;6418;50.824;4.718;2022-12-07T01:59:21;58.07;;;28.13;;
12707;SDS011;6418;50.824;4.718;2022-12-07T02:01:51;54.97;;;28.40;;
12707;SDS011;6418;50.824;4.718;2022-12-07T02:04:18;49.73;;;27.97;;
12707;SDS011;6418;50.824;4.718;2022-12-07T02:06:46;55.60;;;28.13;;
12707;SDS011;6418;50.824;4.718;2022-12-07T02:09:13;50.43;;;28.27;;
12707;SDS011;6418;50.824;4.718;2022-12-07T02:11:40;50.63;;;29.03;;
12707;SDS011;6418;50.824;4.718;2022-12-07T02:14:09;54.60;;;29.67;;
12707;SDS011;6418;50.824;4.718;2022-12-07T02:16:38;57.63;;;29.33;;
12707;SDS011;6418;50.824;4.718;2022-12-07T02:19:21;55.30;;;30.03;;
12707;SDS011;6418;50.824;4.718;2022-12-07T02:22:17;62.57;;;29.60;;
12707;SDS011;6418;50.824;4.718;2022-12-07T02:25:10;56.27;;;29.50;;
12707;SDS011;6418;50.824;4.718;2022-12-07T02:27:49;53.37;;;29.90;;
12707;SDS011;6418;50.824;4.718;2022-12-07T02:30:23;65.23;;;31.47;;
12707;SDS011;6418;50.824;4.718;2022-12-07T02:32:57;58.53;;;31.13;;
12707;SDS011;6418;50.824;4.718;2022-12-07T02:35:28;60.77;;;30.93;;
12707;SDS011;6418;50.824;4.718;2022-12-07T02:37:59;64.03;;;31.37;;
12707;SDS011;6418;50.824;4.718;2022-12-07T02:40:33;60.53;;;30.93;;
12707;SDS011;6418;50.824;4.718;2022-12-07T02:43:04;58.80;;;30.67;;
12707;SDS011;6418;50.824;4.718;2022-12-07T02:45:37;62.40;;;31.73;;
12707;SDS011;6418;50.824;4.718;2022-12-07T02:48:06;61.73;;;32.43;;
12707;SDS011;6418;50.824;4.718;2022-12-07T02:50:37;63.53;;;32.07;;
12707;SDS011;6418;50.824;4.718;2022-12-07T02:53:04;63.23;;;31.37;;
12707;SDS011;6418;50.824;4.718;2022-12-07T02:55:33;67.90;;;31.87;;
12707;SDS011;6418;50.824;4.718;2022-12-07T02:58:10;62.60;;;32.43;;
12707;SDS011;6418;50.824;4.718;2022-12-07T03:00:51;56.37;;;29.90;;
12707;SDS011;6418;50.824;4.718;2022-12-07T03:03:25;62.50;;;32.13;;
12707;SDS011;6418;50.824;4.718;2022-12-07T03:05:57;63.40;;;32.13;;
12707;SDS011;6418;50.824;4.718;2022-12-07T03:08:38;70.60;;;33.40;;
12707;SDS011;6418;50.824;4.718;2022-12-07T03:11:12;66.47;;;33.10;;
12707;SDS011;6418;50.824;4.718;2022-12-07T03:13:44;70.67;;;32.87;;
12707;SDS011;6418;50.824;4.718;2022-12-07T03:16:16;63.63;;;31.63;;
12707;SDS011;6418;50.824;4.718;2022-12-07T03:18:47;67.23;;;33.63;;
12707;SDS011;6418;50.824;4.718;2022-12-07T03:21:18;68.50;;;31.73;;
12707;SDS011;6418;50.824;4.718;2022-12-07T03:23:51;67.57;;;32.70;;
12707;SDS011;6418;50.824;4.718;2022-12-07T03:26:20;70.23;;;33.50;;
12707;SDS011;6418;50.824;4.718;2022-12-07T03:28:51;65.47;;;31.73;;
12707;SDS011;6418;50.824;4.718;2022-12-07T03:31:23;76.60;;;33.30;;
12707;SDS011;6418;50.824;4.718;2022-12-07T03:33:56;60.67;;;31.77;;
12707;SDS011;6418;50.824;4.718;2022-12-07T03:36:28;63.23;;;31.73;;
12707;SDS011;6418;50.824;4.718;2022-12-07T03:39:03;73.17;;;31.37;;
12707;SDS011;6418;50.824;4.718;2022-12-07T03:41:39;60.63;;;30.60;;
12707;SDS011;6418;50.824;4.718;2022-12-07T03:44:06;58.67;;;32.03;;
12707;SDS011;6418;50.824;4.718;2022-12-07T03:46:37;70.70;;;32.43;;
12707;SDS011;6418;50.824;4.718;2022-12-07T03:49:11;63.67;;;32.03;;
12707;SDS011;6418;50.824;4.718;2022-12-07T03:51:44;60.33;;;31.73;;
12707;SDS011;6418;50.824;4.718;2022-12-07T03:54:16;65.77;;;33.57;;
12707;SDS011;6418;50.824;4.718;2022-12-07T03:56:47;61.23;;;31.53;;
12707;SDS011;6418;50.824;4.718;2022-12-07T03:59:15;65.10;;;31.40;;
12707;SDS011;6418;50.824;4.718;2022-12-07T04:01:45;68.17;;;31.53;;
12707;SDS011;6418;50.824;4.718;2022-12-07T04:04:19;65.67;;;31.87;;
12707;SDS011;6418;50.824;4.718;2022-12-07T04:06:46;65.67;;;31.93;;
12707;SDS011;6418;50.824;4.718;2022-12-07T04:09:13;62.07;;;30.93;;
12707;SDS011;6418;50.824;4.718;2022-12-07T04:11:41;62.93;;;32.03;;
12707;SDS011;6418;50.824;4.718;2022-12-07T04:14:08;59.20;;;30.43;;
12707;SDS011;6418;50.824;4.718;2022-12-07T04:16:45;68.03;;;31.43;;
12707;SDS011;6418;50.824;4.718;2022-12-07T04:19:12;65.80;;;30.33;;
12707;SDS011;6418;50.824;4.718;2022-12-07T04:21:39;61.80;;;29.73;;
12707;SDS011;6418;50.824;4.718;2022-12-07T04:24:07;59.57;;;30.73;;
12707;SDS011;6418;50.824;4.718;2022-12-07T04:26:34;56.97;;;29.23;;
12707;SDS011;6418;50.824;4.718;2022-12-07T04:29:01;62.77;;;30.13;;
12707;SDS011;6418;50.824;4.718;2022-12-07T04:31:28;63.53;;;29.33;;
12707;SDS011;6418;50.824;4.718;2022-12-07T04:33:56;63.73;;;30.63;;
12707;SDS011;6418;50.824;4.718;2022-12-07T04:36:23;58.50;;;29.53;;
12707;SDS011;6418;50.824;4.718;2022-12-07T04:38:52;60.07;;;28.20;;
12707;SDS011;6418;50.824;4.718;2022-12-07T04:41:20;63.70;;;28.30;;
12707;SDS011;6418;50.824;4.718;2022-12-07T04:43:52;55.87;;;27.50;;
12707;SDS011;6418;50.824;4.718;2022-12-07T04:46:19;58.53;;;28.53;;
12707;SDS011;6418;50.824;4.718;2022-12-07T04:48:46;58.80;;;27.60;;
12707;SDS011;6418;50.824;4.718;2022-12-07T04:51:14;52.00;;;28.03;;
12707;SDS011;6418;50.824;4.718;2022-12-07T04:53:45;57.13;;;27.37;;
12707;SDS011;6418;50.824;4.718;2022-12-07T04:56:13;50.57;;;26.40;;
12707;SDS011;6418;50.824;4.718;2022-12-07T04:58:42;55.73;;;27.20;;
12707;SDS011;6418;50.824;4.718;2022-12-07T05:01:10;57.37;;;28.17;;
12707;SDS011;6418;50.824;4.718;2022-12-07T05:03:38;60.93;;;27.03;;
12707;SDS011;6418;50.824;4.718;2022-12-07T05:06:06;61.33;;;28.37;;
12707;SDS011;6418;50.824;4.718;2022-12-07T05:08:36;56.37;;;27.47;;
12707;SDS011;6418;50.824;4.718;2022-12-07T05:11:03;60.73;;;27.30;;
12707;SDS011;6418;50.824;4.718;2022-12-07T05:13:32;56.13;;;27.23;;
12707;SDS011;6418;50.824;4.718;2022-12-07T05:15:59;61.63;;;27.30;;
12707;SDS011;6418;50.824;4.718;2022-12-07T05:18:26;62.33;;;26.90;;
12707;SDS011;6418;50.824;4.718;2022-12-07T05:20:53;54.40;;;27.23;;
12707;SDS011;6418;50.824;4.718;2022-12-07T05:23:20;58.00;;;26.63;;
12707;SDS011;6418;50.824;4.718;2022-12-07T05:25:48;54.90;;;25.37;;
12707;SDS011;6418;50.824;4.718;2022-12-07T05:28:15;51.47;;;25.07;;
12707;SDS011;6418;50.824;4.718;2022-12-07T05:30:42;56.47;;;26.37;;
12707;SDS011;6418;50.824;4.718;2022-12-07T05:33:09;64.00;;;26.17;;
12707;SDS011;6418;50.824;4.718;2022-12-07T05:35:36;54.63;;;25.83;;
12707;SDS011;6418;50.824;4.718;2022-12-07T05:38:03;58.90;;;27.03;;
12707;SDS011;6418;50.824;4.718;2022-12-07T05:40:29;69.83;;;26.50;;
12707;SDS011;6418;50.824;4.718;2022-12-07T05:42:58;51.30;;;25.77;;
12707;SDS011;6418;50.824;4.718;2022-12-07T05:45:24;54.00;;;25.80;;
12707;SDS011;6418;50.824;4.718;2022-12-07T05:47:51;53.07;;;26.53;;
12707;SDS011;6418;50.824;4.718;2022-12-07T05:50:18;53.53;;;25.27;;
12707;SDS011;6418;50.824;4.718;2022-12-07T05:52:45;57.13;;;28.07;;
12707;SDS011;6418;50.824;4.718;2022-12-07T05:55:12;55.50;;;26.63;;
12707;SDS011;6418;50.824;4.718;2022-12-07T05:57:39;60.10;;;26.83;;
12707;SDS011;6418;50.824;4.718;2022-12-07T06:00:28;57.73;;;26.37;;
12707;SDS011;6418;50.824;4.718;2022-12-07T06:02:54;54.93;;;27.13;;
12707;SDS011;6418;50.824;4.718;2022-12-07T06:05:21;51.57;;;27.37;;
12707;SDS011;6418;50.824;4.718;2022-12-07T06:07:48;55.10;;;27.77;;
12707;SDS011;6418;50.824;4.718;2022-12-07T06:10:15;55.70;;;26.30;;
12707;SDS011;6418;50.824;4.718;2022-12-07T06:12:42;64.70;;;28.60;;
12707;SDS011;6418;50.824;4.718;2022-12-07T06:15:10;57.67;;;26.80;;
12707;SDS011;6418;50.824;4.718;2022-12-07T06:17:39;56.97;;;26.90;;
12707;SDS011;6418;50.824;4.718;2022-12-07T06:20:07;53.43;;;26.77;;
12707;SDS011;6418;50.824;4.718;2022-12-07T06:22:34;60.80;;;27.07;;
12707;SDS011;6418;50.824;4.718;2022-12-07T06:25:01;55.67;;;27.60;;
12707;SDS011;6418;50.824;4.718;2022-12-07T06:27:28;55.00;;;27.60;;
12707;SDS011;6418;50.824;4.718;2022-12-07T06:29:57;58.60;;;27.27;;
12707;SDS011;6418;50.824;4.718;2022-12-07T06:32:31;60.13;;;27.80;;
12707;SDS011;6418;50.824;4.718;2022-12-07T06:34:59;58.23;;;27.80;;
12707;SDS011;6418;50.824;4.718;2022-12-07T06:37:26;57.87;;;27.97;;
12707;SDS011;6418;50.824;4.718;2022-12-07T06:39:53;56.07;;;26.33;;
12707;SDS011;6418;50.824;4.718;2022-12-07T06:42:20;57.07;;;28.17;;
12707;SDS011;6418;50.824;4.718;2022-12-07T06:44:47;55.40;;;27.93;;
12707;SDS011;6418;50.824;4.718;2022-12-07T06:47:15;58.80;;;27.03;;
12707;SDS011;6418;50.824;4.718;2022-12-07T06:49:42;62.73;;;27.90;;
12707;SDS011;6418;50.824;4.718;2022-12-07T06:52:10;51.57;;;25.97;;
12707;SDS011;6418;50.824;4.718;2022-12-07T06:54:37;57.57;;;28.97;;
12707;SDS011;6418;50.824;4.718;2022-12-07T06:57:04;61.03;;;27.87;;
12707;SDS011;6418;50.824;4.718;2022-12-07T06:59:31;56.83;;;28.80;;
12707;SDS011;6418;50.824;4.718;2022-12-07T07:01:58;57.40;;;28.27;;
12707;SDS011;6418;50.824;4.718;2022-12-07T07:04:25;65.40;;;27.97;;
12707;SDS011;6418;50.824;4.718;2022-12-07T07:06:52;54.23;;;28.10;;
12707;SDS011;6418;50.824;4.718;2022-12-07T07:09:20;60.23;;;28.23;;
12707;SDS011;6418;50.824;4.718;2022-12-07T07:11:47;63.63;;;28.73;;
12707;SDS011;6418;50.824;4.718;2022-12-07T07:14:14;52.37;;;27.53;;
12707;SDS011;6418;50.824;4.718;2022-12-07T07:16:44;60.27;;;28.47;;
12707;SDS011;6418;50.824;4.718;2022-12-07T07:19:10;53.80;;;28.00;;
12707;SDS011;6418;50.824;4.718;2022-12-07T07:21:37;63.80;;;28.53;;
12707;SDS011;6418;50.824;4.718;2022-12-07T07:24:04;62.67;;;28.47;;
12707;SDS011;6418;50.824;4.718;2022-12-07T07:26:33;61.33;;;28.00;;
12707;SDS011;6418;50.824;4.718;2022-12-07T07:29:00;60.87;;;28.53;;
12707;SDS011;6418;50.824;4.718;2022-12-07T07:31:27;73.90;;;28.57;;
12707;SDS011;6418;50.824;4.718;2022-12-07T07:33:54;76.90;;;30.50;;
12707;SDS011;6418;50.824;4.718;2022-12-07T07:36:21;71.47;;;29.47;;
12707;SDS011;6418;50.824;4.718;2022-12-07T07:38:47;82.73;;;33.53;;
12707;SDS011;6418;50.824;4.718;2022-12-07T07:41:14;93.30;;;38.97;;
12707;SDS011;6418;50.824;4.718;2022-12-07T07:43:42;71.93;;;34.00;;
12707;SDS011;6418;50.824;4.718;2022-12-07T07:46:10;74.30;;;35.00;;
12707;SDS011;6418;50.824;4.718;2022-12-07T07:48:36;70.87;;;30.03;;
12707;SDS011;6418;50.824;4.718;2022-12-07T07:51:04;67.60;;;29.77;;
12707;SDS011;6418;50.824;4.718;2022-12-07T07:53:32;70.97;;;29.60;;
12707;SDS011;6418;50.824;4.718;2022-12-07T07:55:59;66.60;;;29.83;;
12707;SDS011;6418;50.824;4.718;2022-12-07T07:58:26;64.93;;;28.03;;
12707;SDS011;6418;50.824;4.718;2022-12-07T08:00:55;64.50;;;28.27;;
12707;SDS011;6418;50.824;4.718;2022-12-07T08:03:22;62.37;;;27.07;;
12707;SDS011;6418;50.824;4.718;2022-12-07T08:05:49;54.50;;;27.57;;
12707;SDS011;6418;50.824;4.718;2022-12-07T08:08:16;55.77;;;27.90;;
12707;SDS011;6418;50.824;4.718;2022-12-07T08:10:43;52.43;;;26.07;;
12707;SDS011;6418;50.824;4.718;2022-12-07T08:13:10;58.03;;;26.83;;
12707;SDS011;6418;50.824;4.718;2022-12-07T08:15:37;53.47;;;27.90;;
12707;SDS011;6418;50.824;4.718;2022-12-07T08:18:07;73.07;;;27.97;;
12707;SDS011;6418;50.824;4.718;2022-12-07T08:20:34;67.87;;;27.87;;
12707;SDS011;6418;50.824;4.718;2022-12-07T08:23:02;70.17;;;28.17;;
12707;SDS011;6418;50.824;4.718;2022-12-07T08:25:30;62.07;;;29.80;;
12707;SDS011;6418;50.824;4.718;2022-12-07T08:27:58;71.03;;;30.37;;
12707;SDS011;6418;50.824;4.718;2022-12-07T08:30:26;57.70;;;28.43;;
12707;SDS011;6418;50.824;4.718;2022-12-07T08:32:53;63.93;;;30.00;;
12707;SDS011;6418;50.824;4.718;2022-12-07T08:35:22;69.53;;;29.50;;
12707;SDS011;6418;50.824;4.718;2022-12-07T08:37:49;59.47;;;27.20;;
12707;SDS011;6418;50.824;4.718;2022-12-07T08:40:16;55.73;;;26.67;;
12707;SDS011;6418;50.824;4.718;2022-12-07T08:42:44;58.03;;;27.70;;
12707;SDS011;6418;50.824;4.718;2022-12-07T08:45:14;59.80;;;29.27;;
12707;SDS011;6418;50.824;4.718;2022-12-07T08:47:43;57.33;;;28.07;;
12707;SDS011;6418;50.824;4.718;2022-12-07T08:50:14;55.27;;;27.63;;
12707;SDS011;6418;50.824;4.718;2022-12-07T08:52:44;53.87;;;25.47;;
12707;SDS011;6418;50.824;4.718;2022-12-07T08:55:14;57.50;;;24.80;;
12707;SDS011;6418;50.824;4.718;2022-12-07T08:57:41;55.33;;;24.53;;
12707;SDS011;6418;50.824;4.718;2022-12-07T09:00:08;52.70;;;24.43;;
12707;SDS011;6418;50.824;4.718;2022-12-07T09:02:36;52.93;;;25.60;;
12707;SDS011;6418;50.824;4.718;2022-12-07T09:05:03;53.43;;;25.53;;
12707;SDS011;6418;50.824;4.718;2022-12-07T09:07:31;52.73;;;25.80;;
12707;SDS011;6418;50.824;4.718;2022-12-07T09:10:01;50.77;;;25.73;;
12707;SDS011;6418;50.824;4.718;2022-12-07T09:12:27;51.00;;;25.10;;
12707;SDS011;6418;50.824;4.718;2022-12-07T09:14:54;51.07;;;25.97;;
12707;SDS011;6418;50.824;4.718;2022-12-07T09:17:21;47.23;;;25.40;;
12707;SDS011;6418;50.824;4.718;2022-12-07T09:19:48;51.07;;;26.03;;
12707;SDS011;6418;50.824;4.718;2022-12-07T09:22:15;52.20;;;26.30;;
12707;SDS011;6418;50.824;4.718;2022-12-07T09:24:42;53.17;;;24.80;;
12707;SDS011;6418;50.824;4.718;2022-12-07T09:27:11;49.53;;;24.67;;
12707;SDS011;6418;50.824;4.718;2022-12-07T09:29:38;53.33;;;24.70;;
12707;SDS011;6418;50.824;4.718;2022-12-07T09:32:05;47.63;;;25.47;;
12707;SDS011;6418;50.824;4.718;2022-12-07T09:34:32;52.07;;;25.70;;
12707;SDS011;6418;50.824;4.718;2022-12-07T09:37:00;47.83;;;26.47;;
12707;SDS011;6418;50.824;4.718;2022-12-07T09:39:29;51.73;;;26.63;;
12707;SDS011;6418;50.824;4.718;2022-12-07T09:41:56;53.63;;;25.67;;
12707;SDS011;6418;50.824;4.718;2022-12-07T09:44:26;51.03;;;25.90;;
12707;SDS011;6418;50.824;4.718;2022-12-07T09:46:53;49.00;;;25.67;;
12707;SDS011;6418;50.824;4.718;2022-12-07T09:49:22;48.40;;;25.47;;
12707;SDS011;6418;50.824;4.718;2022-12-07T09:51:59;45.63;;;25.00;;
12707;SDS011;6418;50.824;4.718;2022-12-07T09:54:28;53.47;;;25.73;;
12707;SDS011;6418;50.824;4.718;2022-12-07T09:56:56;47.67;;;25.27;;
12707;SDS011;6418;50.824;4.718;2022-12-07T09:59:25;44.67;;;24.67;;
12707;SDS011;6418;50.824;4.718;2022-12-07T10:01:52;46.77;;;23.87;;
12707;SDS011;6418;50.824;4.718;2022-12-07T10:04:20;46.73;;;24.00;;
12707;SDS011;6418;50.824;4.718;2022-12-07T10:06:49;42.73;;;23.13;;
12707;SDS011;6418;50.824;4.718;2022-12-07T10:09:18;47.63;;;24.67;;
12707;SDS011;6418;50.824;4.718;2022-12-07T10:11:59;46.00;;;23.23;;
12707;SDS011;6418;50.824;4.718;2022-12-07T10:14:32;42.20;;;24.57;;
12707;SDS011;6418;50.824;4.718;2022-12-07T10:17:01;43.57;;;23.73;;
12707;SDS011;6418;50.824;4.718;2022-12-07T10:19:30;43.67;;;22.10;;
12707;SDS011;6418;50.824;4.718;2022-12-07T10:22:07;43.10;;;21.97;;
12707;SDS011;6418;50.824;4.718;2022-12-07T10:24:36;41.27;;;22.17;;
12707;SDS011;6418;50.824;4.718;2022-12-07T10:27:04;36.73;;;20.63;;
12707;SDS011;6418;50.824;4.718;2022-12-07T10:29:48;40.80;;;21.23;;
12707;SDS011;6418;50.824;4.718;2022-12-07T10:32:30;39.17;;;19.77;;
12707;SDS011;6418;50.824;4.718;2022-12-07T10:37:57;33.57;;;18.47;;
12707;SDS011;6418;50.824;4.718;2022-12-07T10:40:26;36.10;;;17.87;;
12707;SDS011;6418;50.824;4.718;2022-12-07T10:43:02;34.60;;;16.83;;
12707;SDS011;6418;50.824;4.718;2022-12-07T10:45:34;30.80;;;16.97;;
12707;SDS011;6418;50.824;4.718;2022-12-07T10:48:02;28.50;;;15.53;;
12707;SDS011;6418;50.824;4.718;2022-12-07T10:50:42;29.80;;;13.73;;
12707;SDS011;6418;50.824;4.718;2022-12-07T10:53:28;26.60;;;13.93;;
12707;SDS011;6418;50.824;4.718;2022-12-07T10:56:14;23.47;;;13.33;;
12707;SDS011;6418;50.824;4.718;2022-12-07T10:59:15;24.80;;;12.97;;
12707;SDS011;6418;50.824;4.718;2022-12-07T11:01:52;22.00;;;12.27;;
12707;SDS011;6418;50.824;4.718;2022-12-07T11:04:27;25.83;;;12.60;;
12707;SDS011;6418;50.824;4.718;2022-12-07T11:07:01;22.30;;;12.07;;
12707;SDS011;6418;50.824;4.718;2022-12-07T11:12:26;22.33;;;12.07;;
12707;SDS011;6418;50.824;4.718;2022-12-07T11:15:04;24.70;;;12.27;;
12707;SDS011;6418;50.824;4.718;2022-12-07T11:17:45;26.53;;;12.10;;
12707;SDS011;6418;50.824;4.718;2022-12-07T11:20:25;23.13;;;12.50;;
12707;SDS011;6418;50.824;4.718;2022-12-07T11:23:02;23.27;;;12.53;;
12707;SDS011;6418;50.824;4.718;2022-12-07T11:25:37;24.70;;;12.27;;
12707;SDS011;6418;50.824;4.718;2022-12-07T11:28:16;24.63;;;12.77;;
12707;SDS011;6418;50.824;4.718;2022-12-07T11:30:53;20.67;;;11.77;;
12707;SDS011;6418;50.824;4.718;2022-12-07T11:33:31;25.37;;;12.90;;
12707;SDS011;6418;50.824;4.718;2022-12-07T11:36:04;24.83;;;13.00;;
12707;SDS011;6418;50.824;4.718;2022-12-07T11:38:42;22.83;;;12.33;;
12707;SDS011;6418;50.824;4.718;2022-12-07T11:41:12;23.77;;;12.20;;
12707;SDS011;6418;50.824;4.718;2022-12-07T11:43:47;21.03;;;11.73;;
12707;SDS011;6418;50.824;4.718;2022-12-07T11:46:20;21.03;;;11.97;;
12707;SDS011;6418;50.824;4.718;2022-12-07T11:48:54;21.87;;;11.10;;
12707;SDS011;6418;50.824;4.718;2022-12-07T11:51:29;20.10;;;10.43;;
12707;SDS011;6418;50.824;4.718;2022-12-07T11:54:02;19.70;;;10.77;;
12707;SDS011;6418;50.824;4.718;2022-12-07T11:56:37;17.90;;;9.13;;
12707;SDS011;6418;50.824;4.718;2022-12-07T11:59:07;18.97;;;10.33;;
12707;SDS011;6418;50.824;4.718;2022-12-07T12:01:41;17.90;;;9.97;;
12707;SDS011;6418;50.824;4.718;2022-12-07T12:04:19;19.17;;;9.57;;
12707;SDS011;6418;50.824;4.718;2022-12-07T12:06:55;17.40;;;8.90;;
12707;SDS011;6418;50.824;4.718;2022-12-07T12:09:23;20.60;;;9.83;;
12707;SDS011;6418;50.824;4.718;2022-12-07T12:11:59;19.70;;;9.50;;
12707;SDS011;6418;50.824;4.718;2022-12-07T12:14:42;17.53;;;9.27;;
12707;SDS011;6418;50.824;4.718;2022-12-07T12:20:17;23.03;;;9.43;;
12707;SDS011;6418;50.824;4.718;2022-12-07T12:22:49;20.13;;;8.77;;
12707;SDS011;6418;50.824;4.718;2022-12-07T12:25:20;16.37;;;8.07;;
12707;SDS011;6418;50.824;4.718;2022-12-07T12:27:49;19.07;;;8.13;;
12707;SDS011;6418;50.824;4.718;2022-12-07T12:30:26;16.73;;;8.57;;
12707;SDS011;6418;50.824;4.718;2022-12-07T12:33:02;18.27;;;8.17;;
12707;SDS011;6418;50.824;4.718;2022-12-07T12:35:33;16.60;;;8.30;;
12707;SDS011;6418;50.824;4.718;2022-12-07T12:38:24;16.80;;;8.43;;
12707;SDS011;6418;50.824;4.718;2022-12-07T12:40:58;16.07;;;7.83;;
12707;SDS011;6418;50.824;4.718;2022-12-07T12:55:21;15.90;;;7.97;;
12707;SDS011;6418;50.824;4.718;2022-12-07T12:58:25;15.23;;;7.70;;
12707;SDS011;6418;50.824;4.718;2022-12-07T13:01:36;16.60;;;7.60;;
12707;SDS011;6418;50.824;4.718;2022-12-07T13:10:42;14.77;;;7.90;;
12707;SDS011;6418;50.824;4.718;2022-12-07T13:13:33;17.03;;;7.60;;
12707;SDS011;6418;50.824;4.718;2022-12-07T13:25:19;16.57;;;7.20;;
12707;SDS011;6418;50.824;4.718;2022-12-07T13:27:55;18.50;;;7.60;;
12707;SDS011;6418;50.824;4.718;2022-12-07T13:30:27;17.37;;;6.57;;
12707;SDS011;6418;50.824;4.718;2022-12-07T13:32:56;16.57;;;6.90;;
12707;SDS011;6418;50.824;4.718;2022-12-07T13:35:34;13.30;;;6.07;;
12707;SDS011;6418;50.824;4.718;2022-12-07T13:38:04;14.17;;;6.30;;
12707;SDS011;6418;50.824;4.718;2022-12-07T13:40:32;15.10;;;6.20;;
12707;SDS011;6418;50.824;4.718;2022-12-07T13:43:00;12.90;;;5.70;;
12707;SDS011;6418;50.824;4.718;2022-12-07T13:45:29;12.20;;;5.43;;
12707;SDS011;6418;50.824;4.718;2022-12-07T13:48:19;12.57;;;5.53;;
12707;SDS011;6418;50.824;4.718;2022-12-07T13:50:55;14.53;;;6.27;;
12707;SDS011;6418;50.824;4.718;2022-12-07T13:53:22;16.00;;;6.00;;
12707;SDS011;6418;50.824;4.718;2022-12-07T13:55:53;17.33;;;7.73;;
12707;SDS011;6418;50.824;4.718;2022-12-07T13:58:20;12.17;;;5.10;;
12707;SDS011;6418;50.824;4.718;2022-12-07T14:00:48;11.03;;;4.80;;
12707;SDS011;6418;50.824;4.718;2022-12-07T14:03:26;11.30;;;4.97;;
12707;SDS011;6418;50.824;4.718;2022-12-07T14:08:50;9.03;;;4.90;;
12707;SDS011;6418;50.824;4.718;2022-12-07T14:11:31;10.43;;;4.50;;
12707;SDS011;6418;50.824;4.718;2022-12-07T14:13:58;13.63;;;4.70;;
12707;SDS011;6418;50.824;4.718;2022-12-07T14:16:28;11.60;;;4.77;;
12707;SDS011;6418;50.824;4.718;2022-12-07T14:18:57;14.03;;;4.90;;
12707;SDS011;6418;50.824;4.718;2022-12-07T14:21:27;11.83;;;4.73;;
12707;SDS011;6418;50.824;4.718;2022-12-07T14:24:02;13.47;;;5.20;;
12707;SDS011;6418;50.824;4.718;2022-12-07T14:26:37;10.90;;;5.20;;
12707;SDS011;6418;50.824;4.718;2022-12-07T14:31:56;11.73;;;5.00;;
12707;SDS011;6418;50.824;4.718;2022-12-07T14:34:24;12.13;;;5.13;;
12707;SDS011;6418;50.824;4.718;2022-12-07T14:36:53;12.90;;;5.03;;
12707;SDS011;6418;50.824;4.718;2022-12-07T14:39:20;11.27;;;5.80;;
12707;SDS011;6418;50.824;4.718;2022-12-07T14:41:46;13.07;;;5.30;;
12707;SDS011;6418;50.824;4.718;2022-12-07T14:44:17;11.50;;;5.67;;
12707;SDS011;6418;50.824;4.718;2022-12-07T14:46:44;12.10;;;5.10;;
12707;SDS011;6418;50.824;4.718;2022-12-07T14:49:11;12.40;;;5.50;;
12707;SDS011;6418;50.824;4.718;2022-12-07T14:51:39;11.50;;;5.07;;
12707;SDS011;6418;50.824;4.718;2022-12-07T14:54:09;12.47;;;6.00;;
12707;SDS011;6418;50.824;4.718;2022-12-07T14:56:41;10.63;;;6.00;;
12707;SDS011;6418;50.824;4.718;2022-12-07T14:59:09;11.63;;;6.57;;
12707;SDS011;6418;50.824;4.718;2022-12-07T15:01:36;11.70;;;6.20;;
12707;SDS011;6418;50.824;4.718;2022-12-07T15:04:04;11.50;;;6.40;;
12707;SDS011;6418;50.824;4.718;2022-12-07T15:06:31;10.87;;;6.10;;
12707;SDS011;6418;50.824;4.718;2022-12-07T15:08:58;12.23;;;5.97;;
12707;SDS011;6418;50.824;4.718;2022-12-07T15:11:26;11.40;;;5.87;;
12707;SDS011;6418;50.824;4.718;2022-12-07T15:13:53;11.07;;;5.83;;
12707;SDS011;6418;50.824;4.718;2022-12-07T15:16:38;12.33;;;6.27;;
12707;SDS011;6418;50.824;4.718;2022-12-07T15:19:09;10.97;;;6.30;;
12707;SDS011;6418;50.824;4.718;2022-12-07T15:21:38;13.03;;;6.03;;
12707;SDS011;6418;50.824;4.718;2022-12-07T15:24:06;11.70;;;6.23;;
12707;SDS011;6418;50.824;4.718;2022-12-07T15:26:35;11.13;;;5.37;;
12707;SDS011;6418;50.824;4.718;2022-12-07T15:29:02;10.50;;;5.67;;
12707;SDS011;6418;50.824;4.718;2022-12-07T15:31:30;10.30;;;5.37;;
12707;SDS011;6418;50.824;4.718;2022-12-07T15:33:58;8.10;;;4.90;;
12707;SDS011;6418;50.824;4.718;2022-12-07T15:36:26;12.93;;;5.30;;
12707;SDS011;6418;50.824;4.718;2022-12-07T15:38:54;14.20;;;5.80;;